createdAt,value
2023-05-12T00:00:52.289Z,94.57
2023-05-12T00:01:55.463Z,94.58
2023-05-12T00:02:58.244Z,93.89
2023-05-12T00:04:01.809Z,93.37
2023-05-12T00:05:04.992Z,93.83
2023-05-12T00:06:08.285Z,94.28
2023-05-12T00:07:11.025Z,94.90
2023-05-12T00:08:13.918Z,95.06
2023-05-12T00:09:16.705Z,95.21
2023-05-12T00:10:19.781Z,94.42
2023-05-12T00:11:22.837Z,94.58
2023-05-12T00:12:25.582Z,94.67
2023-05-12T00:13:29.222Z,94.77
2023-05-12T00:14:31.921Z,94.92
2023-05-12T00:15:34.756Z,94.66
2023-05-12T00:16:37.498Z,94.99
2023-05-12T00:17:40.521Z,95.48
2023-05-12T00:18:43.359Z,95.00
2023-05-12T00:19:47.054Z,94.26
2023-05-12T00:20:50.289Z,94.63
2023-05-12T00:21:53.109Z,94.82
2023-05-12T00:22:55.973Z,94.86
2023-05-12T00:23:58.765Z,94.79
2023-05-12T00:25:01.452Z,94.82
2023-05-12T00:26:04.118Z,94.81
2023-05-12T00:27:07.651Z,95.08
2023-05-12T00:28:10.352Z,95.12
2023-05-12T00:29:13.101Z,95.44
2023-05-12T00:30:16.055Z,95.67
2023-05-12T00:31:18.815Z,95.50
2023-05-12T00:32:21.621Z,95.53
2023-05-12T00:33:24.382Z,95.44
2023-05-12T00:34:29.951Z,95.36
2023-05-12T00:35:32.703Z,95.97
2023-05-12T00:36:35.483Z,96.27
2023-05-12T00:37:38.243Z,95.88
2023-05-12T00:38:41.543Z,96.00
2023-05-12T00:39:44.213Z,96.38
2023-05-12T00:40:46.931Z,95.90
2023-05-12T00:41:56.983Z,95.59
2023-05-12T00:42:59.787Z,95.94
2023-05-12T00:44:02.563Z,96.46
2023-05-12T00:45:06.048Z,96.79
2023-05-12T00:46:09.329Z,96.98
2023-05-12T00:47:12.623Z,97.18
2023-05-12T00:48:15.696Z,97.10
2023-05-12T00:49:19.525Z,97.24
2023-05-12T00:50:22.569Z,97.12
2023-05-12T00:51:27.705Z,96.83
2023-05-12T00:52:30.538Z,96.10
2023-05-12T00:53:45.431Z,95.69
2023-05-12T00:54:51.221Z,95.61
2023-05-12T00:55:55.732Z,95.67
2023-05-12T00:56:58.484Z,95.93
2023-05-12T00:58:01.139Z,96.22
2023-05-12T00:59:03.922Z,96.05
2023-05-12T01:00:07.644Z,95.96
2023-05-12T01:01:10.663Z,95.75
2023-05-12T01:02:13.577Z,96.24
2023-05-12T01:03:17.754Z,96.55
2023-05-12T01:04:20.680Z,96.42
2023-05-12T01:05:23.558Z,95.72
2023-05-12T01:06:37.330Z,96.18
2023-05-12T01:07:40.600Z,96.41
2023-05-12T01:08:44.227Z,96.67
2023-05-12T01:09:47.100Z,96.82
2023-05-12T01:10:49.767Z,96.88
2023-05-12T01:11:52.523Z,97.08
2023-05-12T01:12:55.184Z,96.90
2023-05-12T01:13:58.214Z,97.07
2023-05-12T01:15:01.303Z,97.28
2023-05-12T01:16:05.161Z,97.50
2023-05-12T01:17:15.974Z,97.39
2023-05-12T01:18:21.946Z,97.27
2023-05-12T01:19:43.121Z,97.44
2023-05-12T01:20:47.800Z,97.81
2023-05-12T01:21:50.992Z,97.49
2023-05-12T01:22:55.472Z,97.64
2023-05-12T01:24:06.654Z,98.02
2023-05-12T01:25:14.922Z,98.47
2023-05-12T01:26:17.996Z,97.95
2023-05-12T01:27:22.481Z,97.58
2023-05-12T01:28:25.202Z,97.49
2023-05-12T01:29:28.855Z,98.03
2023-05-12T01:30:32.442Z,97.39
2023-05-12T01:31:35.748Z,97.90
2023-05-12T01:32:40.633Z,98.10
2023-05-12T01:33:43.771Z,98.42
2023-05-12T01:34:46.904Z,98.52
2023-05-12T01:35:49.604Z,98.95
2023-05-12T01:36:52.298Z,99.45
2023-05-12T01:37:55.040Z,99.66
2023-05-12T01:38:57.848Z,99.39
2023-05-12T01:40:00.525Z,99.25
2023-05-12T01:41:03.466Z,99.55
2023-05-12T01:42:06.470Z,99.64
2023-05-12T01:43:09.200Z,99.61
2023-05-12T01:44:11.857Z,99.63
2023-05-12T01:45:14.624Z,99.61
2023-05-12T01:46:17.329Z,99.51
2023-05-12T01:47:21.968Z,99.44
2023-05-12T01:48:24.642Z,98.77
2023-05-12T01:49:27.408Z,98.44
2023-05-12T01:50:30.138Z,98.11
2023-05-12T01:51:32.816Z,98.43
2023-05-12T01:52:35.601Z,98.71
2023-05-12T01:53:38.402Z,98.90
2023-05-12T01:54:41.116Z,98.87
2023-05-12T01:55:43.853Z,99.09
2023-05-12T01:56:46.524Z,98.48
2023-05-12T01:57:49.328Z,98.21
2023-05-12T01:58:52.172Z,98.49
2023-05-12T01:59:54.908Z,98.11
2023-05-12T02:00:57.802Z,97.74
2023-05-12T02:02:00.556Z,98.15
2023-05-12T02:03:03.497Z,97.93
2023-05-12T02:04:09.004Z,97.97
2023-05-12T02:05:11.951Z,98.41
2023-05-12T02:06:15.157Z,98.60
2023-05-12T02:07:17.872Z,98.55
2023-05-12T02:08:20.679Z,98.72
2023-05-12T02:09:23.427Z,98.65
2023-05-12T02:10:26.118Z,98.92
2023-05-12T02:11:29.059Z,98.66
2023-05-12T02:12:31.852Z,98.06
2023-05-12T02:13:34.950Z,98.39
2023-05-12T02:14:37.688Z,98.47
2023-05-12T02:15:40.443Z,98.46
2023-05-12T02:16:43.298Z,98.90
2023-05-12T02:17:46.347Z,98.92
2023-05-12T02:18:49.071Z,98.76
2023-05-12T02:19:52.337Z,98.71
2023-05-12T02:20:55.243Z,98.91
2023-05-12T02:21:58.037Z,99.22
2023-05-12T02:23:02.365Z,99.34
2023-05-12T02:24:05.198Z,99.53
2023-05-12T02:25:08.331Z,99.06
2023-05-12T02:26:11.054Z,99.20
2023-05-12T02:27:13.935Z,99.36
2023-05-12T02:28:16.660Z,99.03
2023-05-12T02:29:19.957Z,97.92
2023-05-12T02:30:22.800Z,98.37
2023-05-12T02:31:25.856Z,98.73
2023-05-12T02:32:28.861Z,99.02
2023-05-12T02:33:31.677Z,99.35
2023-05-12T02:34:34.480Z,98.70
2023-05-12T02:35:37.176Z,97.95
2023-05-12T02:36:39.909Z,97.98
2023-05-12T02:37:42.619Z,98.17
2023-05-12T02:38:45.669Z,98.55
2023-05-12T02:39:48.307Z,98.76
2023-05-12T02:40:51.125Z,98.79
2023-05-12T02:41:53.807Z,99.04
2023-05-12T02:42:56.821Z,98.94
2023-05-12T02:43:59.544Z,99.25
2023-05-12T02:45:03.123Z,99.31
2023-05-12T02:46:06.316Z,99.01
2023-05-12T02:47:09.070Z,98.75
2023-05-12T02:48:12.239Z,98.60
2023-05-12T02:49:14.868Z,98.62
2023-05-12T02:50:17.790Z,98.83
2023-05-12T02:51:20.533Z,99.06
2023-05-12T02:52:23.156Z,99.63
2023-05-12T02:53:27.490Z,99.74
2023-05-12T02:54:30.152Z,99.77
2023-05-12T02:55:32.927Z,99.58
2023-05-12T02:56:36.441Z,99.41
2023-05-12T02:57:39.282Z,99.42
2023-05-12T02:58:42.274Z,99.68
2023-05-12T02:59:44.964Z,99.24
2023-05-12T03:00:51.973Z,98.77
2023-05-12T03:01:59.907Z,98.58
2023-05-12T03:03:02.700Z,98.84
2023-05-12T03:04:05.567Z,99.18
2023-05-12T03:05:09.483Z,99.58
2023-05-12T03:06:12.330Z,99.53
2023-05-12T03:07:15.401Z,99.28
2023-05-12T03:08:18.199Z,99.39
2023-05-12T03:09:21.136Z,99.42
2023-05-12T03:10:24.068Z,100.00
2023-05-12T03:11:26.976Z,100.00
2023-05-12T03:12:30.132Z,100.00
2023-05-12T03:13:33.660Z,100.00
2023-05-12T03:14:36.532Z,100.00
2023-05-12T03:15:39.237Z,99.99
2023-05-12T03:16:42.016Z,99.75
2023-05-12T03:17:44.872Z,99.96
2023-05-12T03:18:47.880Z,100.00
2023-05-12T03:19:50.620Z,100.00
2023-05-12T03:20:53.452Z,100.00
2023-05-12T03:21:56.605Z,100.00
2023-05-12T03:22:59.389Z,100.00
2023-05-12T03:24:02.216Z,100.00
2023-05-12T03:25:05.587Z,99.31
2023-05-12T03:26:08.345Z,98.84
2023-05-12T03:27:11.084Z,99.31
2023-05-12T03:28:13.768Z,99.61
2023-05-12T03:29:16.489Z,99.03
2023-05-12T03:30:19.243Z,99.06
2023-05-12T03:31:22.170Z,99.28
2023-05-12T03:32:25.071Z,99.24
2023-05-12T03:33:27.989Z,99.57
2023-05-12T03:34:31.750Z,99.53
2023-05-12T03:35:34.508Z,99.71
2023-05-12T03:36:37.658Z,100.00
2023-05-12T03:37:40.467Z,100.00
2023-05-12T03:38:43.194Z,100.00
2023-05-12T03:39:46.051Z,100.00
2023-05-12T03:40:52.845Z,100.00
2023-05-12T03:41:55.754Z,100.00
2023-05-12T03:42:58.397Z,100.00
2023-05-12T03:44:01.346Z,100.00
2023-05-12T03:45:05.530Z,100.00
2023-05-12T03:46:08.412Z,100.00
2023-05-12T03:47:11.237Z,100.00
2023-05-12T03:48:14.096Z,99.90
2023-05-12T03:49:16.770Z,100.00
2023-05-12T03:50:19.743Z,100.00
2023-05-12T03:51:22.578Z,100.00
2023-05-12T03:52:25.355Z,100.00
2023-05-12T03:53:28.042Z,100.00
2023-05-12T03:54:30.984Z,100.00
2023-05-12T03:55:34.120Z,100.00
2023-05-12T03:56:37.518Z,100.00
2023-05-12T03:57:40.277Z,100.00
2023-05-12T03:58:43.617Z,100.00
2023-05-12T03:59:46.702Z,100.00
2023-05-12T04:00:50.392Z,100.00
2023-05-12T04:01:53.759Z,100.00
2023-05-12T04:02:56.514Z,100.00
2023-05-12T04:03:59.330Z,100.00
2023-05-12T04:05:02.217Z,100.00
2023-05-12T04:06:05.307Z,100.00
2023-05-12T04:07:08.120Z,100.00
2023-05-12T04:08:11.007Z,100.00
2023-05-12T04:09:13.742Z,100.00
2023-05-12T04:10:16.645Z,100.00
2023-05-12T04:11:19.277Z,100.00
2023-05-12T04:12:22.057Z,100.00
2023-05-12T04:13:26.133Z,100.00
2023-05-12T04:14:41.829Z,100.00
2023-05-12T04:15:45.755Z,100.00
2023-05-12T04:16:48.636Z,100.00
2023-05-12T04:17:51.362Z,100.00
2023-05-12T04:18:54.303Z,100.00
2023-05-12T04:19:57.003Z,100.00
2023-05-12T04:20:59.691Z,100.00
2023-05-12T04:22:02.781Z,100.00
2023-05-12T04:23:05.471Z,100.00
2023-05-12T04:24:08.404Z,100.00
2023-05-12T04:25:11.146Z,100.00
2023-05-12T04:26:13.830Z,100.00
2023-05-12T04:27:16.568Z,100.00
2023-05-12T04:28:19.196Z,100.00
2023-05-12T04:29:21.905Z,100.00
2023-05-12T04:30:24.517Z,100.00
2023-05-12T04:31:27.268Z,100.00
2023-05-12T04:32:29.992Z,100.00
2023-05-12T04:33:32.825Z,100.00
2023-05-12T04:34:36.199Z,99.75
2023-05-12T04:35:38.983Z,98.73
2023-05-12T04:36:41.821Z,98.76
2023-05-12T04:37:44.407Z,98.92
2023-05-12T04:38:47.330Z,99.50
2023-05-12T04:39:50.048Z,100.00
2023-05-12T04:40:52.734Z,100.00
2023-05-12T04:41:55.534Z,99.69
2023-05-12T04:42:58.191Z,99.71
2023-05-12T04:44:00.969Z,99.82
2023-05-12T04:45:03.977Z,99.89
2023-05-12T04:46:06.876Z,99.65
2023-05-12T04:47:09.590Z,100.00
2023-05-12T04:48:12.272Z,100.00
2023-05-12T04:49:14.952Z,100.00
2023-05-12T04:50:17.752Z,100.00
2023-05-12T04:51:20.420Z,100.00
2023-05-12T04:52:24.660Z,100.00
2023-05-12T04:53:28.380Z,100.00
2023-05-12T04:54:31.390Z,100.00
2023-05-12T04:55:34.116Z,100.00
2023-05-12T04:56:37.445Z,100.00
2023-05-12T04:57:41.686Z,100.00
2023-05-12T04:58:44.470Z,100.00
2023-05-12T04:59:47.105Z,100.00
2023-05-12T05:00:49.826Z,100.00
2023-05-12T05:01:52.663Z,100.00
2023-05-12T05:02:55.627Z,100.00
2023-05-12T05:03:58.518Z,100.00
2023-05-12T05:05:01.277Z,100.00
2023-05-12T05:06:04.124Z,100.00
2023-05-12T05:07:07.090Z,100.00
2023-05-12T05:08:09.945Z,100.00
2023-05-12T05:09:12.808Z,100.00
2023-05-12T05:10:15.706Z,100.00
2023-05-12T05:11:18.444Z,100.00
2023-05-12T05:12:21.147Z,100.00
2023-05-12T05:13:23.867Z,100.00
2023-05-12T05:14:26.972Z,100.00
2023-05-12T05:15:29.785Z,99.94
2023-05-12T05:16:32.554Z,100.00
2023-05-12T05:17:35.397Z,100.00
2023-05-12T05:18:38.213Z,100.00
2023-05-12T05:19:54.741Z,100.00
2023-05-12T05:21:01.193Z,99.51
2023-05-12T05:22:05.192Z,98.80
2023-05-12T05:23:07.865Z,98.33
2023-05-12T05:24:10.605Z,98.54
2023-05-12T05:25:14.326Z,98.31
2023-05-12T05:26:17.058Z,98.64
2023-05-12T05:27:19.905Z,98.42
2023-05-12T05:28:22.868Z,98.45
2023-05-12T05:29:26.813Z,96.75
2023-05-12T05:30:29.762Z,97.10
2023-05-12T05:31:32.554Z,96.90
2023-05-12T05:32:37.032Z,97.19
2023-05-12T05:33:40.002Z,97.57
2023-05-12T05:34:42.836Z,97.49
2023-05-12T05:35:45.783Z,96.80
2023-05-12T05:36:48.553Z,96.30
2023-05-12T05:37:54.036Z,95.56
2023-05-12T05:38:56.928Z,95.84
2023-05-12T05:39:59.768Z,96.04
2023-05-12T05:41:02.645Z,96.81
2023-05-12T05:42:05.530Z,96.78
2023-05-12T05:43:08.131Z,96.76
2023-05-12T05:44:10.835Z,97.36
2023-05-12T05:45:13.534Z,97.50
2023-05-12T05:46:16.226Z,97.81
2023-05-12T05:47:18.969Z,97.16
2023-05-12T05:48:22.016Z,97.16
2023-05-12T05:49:24.754Z,97.42
2023-05-12T05:50:27.633Z,97.50
2023-05-12T05:51:30.311Z,97.43
2023-05-12T05:52:33.188Z,97.91
2023-05-12T05:53:35.883Z,97.82
2023-05-12T05:54:38.689Z,97.41
2023-05-12T05:55:41.314Z,96.67
2023-05-12T05:56:44.044Z,96.09
2023-05-12T05:57:46.775Z,96.38
2023-05-12T05:58:49.470Z,96.32
2023-05-12T05:59:52.149Z,96.74
2023-05-12T06:00:54.837Z,97.06
2023-05-12T06:01:58.227Z,97.39
2023-05-12T06:03:01.483Z,97.63
2023-05-12T06:04:04.801Z,97.17
2023-05-12T06:05:08.275Z,96.87
2023-05-12T06:06:11.135Z,96.60
2023-05-12T06:07:13.973Z,95.71
2023-05-12T06:08:16.953Z,95.49
2023-05-12T06:09:19.722Z,95.62
2023-05-12T06:10:22.772Z,95.75
2023-05-12T06:11:25.800Z,96.46
2023-05-12T06:12:28.890Z,97.35
2023-05-12T06:13:32.009Z,97.08
2023-05-12T06:14:34.912Z,96.59
2023-05-12T06:15:37.664Z,96.13
2023-05-12T06:16:40.567Z,96.57
2023-05-12T06:17:43.475Z,97.11
2023-05-12T06:18:46.386Z,96.51
2023-05-12T06:19:50.139Z,96.87
2023-05-12T06:20:52.972Z,97.49
2023-05-12T06:21:55.683Z,96.73
2023-05-12T06:22:58.513Z,96.75
2023-05-12T06:24:01.329Z,96.56
2023-05-12T06:25:04.632Z,95.55
2023-05-12T06:26:08.095Z,95.73
2023-05-12T06:27:11.016Z,96.15
2023-05-12T06:28:13.712Z,96.08
2023-05-12T06:29:16.750Z,95.60
2023-05-12T06:30:19.485Z,95.65
2023-05-12T06:31:22.190Z,96.21
2023-05-12T06:32:24.990Z,95.95
2023-05-12T06:33:27.784Z,96.20
2023-05-12T06:34:30.505Z,96.56
2023-05-12T06:35:33.602Z,97.06
2023-05-12T06:36:36.475Z,96.80
2023-05-12T06:37:39.318Z,95.97
2023-05-12T06:38:42.122Z,96.03
2023-05-12T06:39:44.949Z,96.61
2023-05-12T06:40:48.126Z,96.95
2023-05-12T06:41:50.815Z,97.02
2023-05-12T06:42:53.568Z,97.17
2023-05-12T06:43:56.634Z,96.53
2023-05-12T06:45:01.139Z,96.64
2023-05-12T06:46:04.109Z,96.88
2023-05-12T06:47:07.072Z,96.95
2023-05-12T06:48:10.158Z,97.19
2023-05-12T06:49:12.990Z,96.46
2023-05-12T06:50:17.351Z,95.91
2023-05-12T06:51:20.124Z,95.53
2023-05-12T06:52:24.311Z,94.73
2023-05-12T06:53:27.519Z,93.69
2023-05-12T06:54:30.199Z,93.93
2023-05-12T06:55:32.869Z,94.99
2023-05-12T06:56:35.629Z,95.60
2023-05-12T06:57:38.619Z,95.92
2023-05-12T06:58:41.363Z,96.55
2023-05-12T06:59:44.131Z,96.58
2023-05-12T07:00:46.896Z,96.83
2023-05-12T07:01:49.612Z,96.04
2023-05-12T07:02:52.678Z,96.22
2023-05-12T07:03:55.831Z,96.69
2023-05-12T07:04:58.544Z,97.22
2023-05-12T07:06:01.312Z,97.53
2023-05-12T07:07:04.282Z,97.67
2023-05-12T07:08:07.195Z,97.57
2023-05-12T07:09:10.133Z,97.79
2023-05-12T07:10:12.876Z,97.23
2023-05-12T07:11:20.346Z,97.00
2023-05-12T07:12:23.037Z,96.74
2023-05-12T07:13:25.773Z,96.13
2023-05-12T07:14:28.461Z,95.53
2023-05-12T07:15:32.778Z,95.82
2023-05-12T07:16:36.062Z,96.10
2023-05-12T07:17:38.873Z,94.55
2023-05-12T07:18:42.461Z,93.34
2023-05-12T07:19:45.351Z,93.17
2023-05-12T07:20:48.122Z,93.45
2023-05-12T07:21:51.013Z,93.53
2023-05-12T07:22:54.949Z,93.41
2023-05-12T07:23:57.809Z,93.72
2023-05-12T07:25:00.570Z,93.08
2023-05-12T07:26:04.984Z,93.65
2023-05-12T07:27:08.411Z,92.72
2023-05-12T07:28:11.650Z,93.05
2023-05-12T07:29:14.586Z,92.62
2023-05-12T07:30:17.649Z,92.45
2023-05-12T07:31:20.550Z,92.75
2023-05-12T07:32:23.356Z,93.05
2023-05-12T07:33:26.373Z,93.65
2023-05-12T07:34:29.032Z,93.45
2023-05-12T07:35:32.060Z,92.86
2023-05-12T07:36:34.797Z,93.64
2023-05-12T07:37:38.401Z,93.69
2023-05-12T07:38:41.367Z,93.84
2023-05-12T07:39:44.035Z,93.60
2023-05-12T07:40:46.896Z,93.63
2023-05-12T07:41:50.908Z,93.81
2023-05-12T07:42:53.862Z,93.49
2023-05-12T07:43:56.686Z,94.08
2023-05-12T07:44:59.869Z,93.94
2023-05-12T07:46:02.828Z,93.80
2023-05-12T07:47:05.903Z,93.16
2023-05-12T07:48:08.827Z,92.58
2023-05-12T07:49:11.514Z,93.28
2023-05-12T07:50:14.193Z,93.49
2023-05-12T07:51:17.031Z,93.43
2023-05-12T07:52:19.912Z,92.58
2023-05-12T07:53:22.625Z,93.03
2023-05-12T07:54:25.350Z,93.39
2023-05-12T07:55:28.141Z,94.46
2023-05-12T07:56:31.010Z,94.13
2023-05-12T07:57:33.700Z,94.14
2023-05-12T07:58:36.463Z,95.09
2023-05-12T07:59:39.175Z,95.23
2023-05-12T08:00:42.335Z,94.61
2023-05-12T08:01:45.131Z,94.17
2023-05-12T08:02:48.164Z,94.40
2023-05-12T08:03:51.687Z,93.58
2023-05-12T08:04:56.318Z,93.72
2023-05-12T08:05:59.082Z,94.50
2023-05-12T08:07:01.785Z,94.76
2023-05-12T08:08:04.633Z,92.59
2023-05-12T08:09:07.385Z,93.03
2023-05-12T08:10:12.129Z,93.16
2023-05-12T08:11:15.003Z,92.88
2023-05-12T08:12:17.781Z,92.98
2023-05-12T08:13:20.528Z,93.04
2023-05-12T08:14:23.188Z,91.27
2023-05-12T08:15:25.871Z,90.85
2023-05-12T08:16:28.635Z,91.22
2023-05-12T08:17:31.486Z,91.95
2023-05-12T08:18:34.384Z,93.22
2023-05-12T08:19:37.052Z,93.24
2023-05-12T08:20:39.695Z,93.72
2023-05-12T08:21:42.492Z,92.88
2023-05-12T08:22:46.930Z,93.09
2023-05-12T08:23:49.747Z,93.45
2023-05-12T08:24:53.039Z,93.86
2023-05-12T08:25:55.919Z,93.79
2023-05-12T08:26:58.668Z,91.26
2023-05-12T08:28:01.413Z,91.71
2023-05-12T08:29:04.949Z,92.08
2023-05-12T08:30:08.576Z,92.14
2023-05-12T08:31:11.981Z,90.61
2023-05-12T08:32:15.334Z,91.22
2023-05-12T08:33:17.984Z,91.25
2023-05-12T08:34:20.710Z,90.48
2023-05-12T08:35:26.086Z,90.61
2023-05-12T08:36:28.782Z,90.43
2023-05-12T08:37:34.253Z,89.07
2023-05-12T08:38:37.747Z,90.11
2023-05-12T08:39:40.808Z,90.59
2023-05-12T08:41:11.247Z,85.12
2023-05-12T08:42:33.267Z,86.58
2023-05-12T08:43:50.030Z,87.87
2023-05-12T08:44:54.360Z,88.57
2023-05-12T08:46:00.368Z,88.24
2023-05-12T08:47:05.573Z,88.76
2023-05-12T08:48:11.064Z,88.98
2023-05-12T08:49:17.900Z,90.47
2023-05-12T08:50:22.976Z,91.24
2023-05-12T08:51:27.448Z,90.67
2023-05-12T08:52:34.370Z,89.07
2023-05-12T08:53:39.011Z,86.57
2023-05-12T08:54:52.194Z,86.31
2023-05-12T08:57:10.415Z,85.92
2023-05-12T08:58:14.978Z,85.58
2023-05-12T08:59:18.165Z,86.46
2023-05-12T09:00:22.143Z,86.52
2023-05-12T09:01:29.165Z,87.07
2023-05-12T09:02:44.643Z,87.69
2023-05-12T09:03:54.665Z,88.38
2023-05-12T09:04:57.473Z,88.35
2023-05-12T09:06:01.036Z,88.76
2023-05-12T09:07:05.351Z,89.16
2023-05-12T09:08:10.013Z,89.38
2023-05-12T09:09:14.389Z,89.23
2023-05-12T09:10:33.581Z,89.18
2023-05-12T09:11:37.552Z,89.72
2023-05-12T09:12:41.338Z,90.37
2023-05-12T09:14:00.527Z,90.44
2023-05-12T09:15:08.521Z,88.30
2023-05-12T09:16:12.983Z,88.72
2023-05-12T09:17:15.828Z,89.51
2023-05-12T09:18:18.556Z,90.27
2023-05-12T09:19:21.849Z,91.27
2023-05-12T09:20:31.756Z,91.41
2023-05-12T09:21:35.085Z,91.73
2023-05-12T09:22:37.909Z,91.10
2023-05-12T09:23:40.762Z,90.67
2023-05-12T09:24:44.430Z,91.53
2023-05-12T09:25:47.544Z,91.71
2023-05-12T09:26:52.420Z,91.92
2023-05-12T09:27:57.356Z,91.38
2023-05-12T09:29:08.591Z,91.44
2023-05-12T09:30:12.159Z,91.59
2023-05-12T09:31:26.296Z,92.53
2023-05-12T09:32:33.811Z,93.32
2023-05-12T09:33:37.000Z,93.91
2023-05-12T09:34:41.631Z,92.86
2023-05-12T09:35:46.071Z,93.53
2023-05-12T09:36:59.571Z,93.74
2023-05-12T09:38:10.099Z,94.10
2023-05-12T09:39:13.226Z,94.85
2023-05-12T09:40:16.525Z,95.46
2023-05-12T09:41:25.870Z,96.04
2023-05-12T09:42:30.810Z,96.47
2023-05-12T09:43:36.427Z,95.67
2023-05-12T09:44:39.953Z,95.61
2023-05-12T09:45:44.381Z,95.96
2023-05-12T09:46:48.024Z,96.56
2023-05-12T09:47:50.824Z,96.44
2023-05-12T09:48:57.524Z,96.42
2023-05-12T09:50:03.107Z,95.43
2023-05-12T09:51:10.022Z,95.24
2023-05-12T09:52:12.715Z,93.62
2023-05-12T09:53:18.001Z,94.13
2023-05-12T09:54:32.512Z,94.37
2023-05-12T09:55:35.191Z,94.04
2023-05-12T09:56:38.520Z,92.79
2023-05-12T09:57:44.608Z,93.44
2023-05-12T09:58:49.283Z,93.24
2023-05-12T09:59:52.669Z,94.43
2023-05-12T10:02:06.905Z,95.40
2023-05-12T10:03:14.491Z,95.27
2023-05-12T10:04:17.452Z,95.29
2023-05-12T10:05:22.719Z,94.91
2023-05-12T10:06:34.192Z,95.19
2023-05-12T10:07:37.508Z,95.76
2023-05-12T10:09:00.584Z,96.03
2023-05-12T10:10:05.738Z,96.73
2023-05-12T10:11:09.718Z,96.53
2023-05-12T10:12:13.673Z,95.67
2023-05-12T10:13:17.021Z,95.76
2023-05-12T10:14:19.761Z,96.40
2023-05-12T10:15:25.198Z,96.68
2023-05-12T10:16:29.097Z,96.25
2023-05-12T10:17:32.525Z,97.03
2023-05-12T10:18:36.373Z,97.01
2023-05-12T10:19:41.893Z,96.86
2023-05-12T10:20:46.312Z,97.18
2023-05-12T10:21:50.043Z,97.63
2023-05-12T10:22:54.865Z,96.77
2023-05-12T10:23:58.270Z,97.09
2023-05-12T10:25:05.395Z,96.82
2023-05-12T10:26:10.411Z,96.32
2023-05-12T10:27:16.081Z,96.12
2023-05-12T10:28:20.229Z,96.50
2023-05-12T10:29:30.288Z,96.42
2023-05-12T10:30:34.613Z,96.15
2023-05-12T10:31:38.795Z,96.75
2023-05-12T10:32:41.660Z,97.75
2023-05-12T10:33:44.444Z,97.18
2023-05-12T10:34:47.284Z,96.93
2023-05-12T10:35:52.954Z,96.67
2023-05-12T10:36:55.699Z,95.87
2023-05-12T10:38:04.513Z,95.70
2023-05-12T10:39:07.233Z,95.36
2023-05-12T10:40:11.413Z,95.56
2023-05-12T10:41:14.269Z,96.22
2023-05-12T10:42:26.221Z,96.22
2023-05-12T10:43:38.061Z,96.50
2023-05-12T10:44:54.779Z,97.08
2023-05-12T10:46:16.782Z,96.96
2023-05-12T10:47:27.200Z,97.86
2023-05-12T10:48:29.971Z,98.50
2023-05-12T10:49:35.057Z,98.09
2023-05-12T10:50:37.740Z,98.55
2023-05-12T10:51:43.415Z,98.58
2023-05-12T10:52:56.655Z,99.13
2023-05-12T10:54:02.331Z,98.11
2023-05-12T10:55:05.594Z,97.95
2023-05-12T10:56:09.166Z,98.36
2023-05-12T10:57:20.774Z,98.47
2023-05-12T10:58:23.898Z,98.61
2023-05-12T10:59:27.716Z,98.32
2023-05-12T11:00:31.404Z,98.44
2023-05-12T11:01:35.647Z,98.38
2023-05-12T11:02:51.444Z,98.47
2023-05-12T11:04:09.895Z,98.75
2023-05-12T11:05:13.481Z,98.52
2023-05-12T11:06:19.976Z,98.64
2023-05-12T11:07:27.237Z,98.43
2023-05-12T11:08:32.414Z,99.06
2023-05-12T11:09:42.731Z,99.04
2023-05-12T11:10:53.991Z,99.15
2023-05-12T11:11:56.862Z,99.00
2023-05-12T11:12:59.671Z,98.09
2023-05-12T11:14:02.675Z,97.94
2023-05-12T11:15:07.031Z,97.92
2023-05-12T11:16:13.702Z,97.90
2023-05-12T11:17:16.777Z,97.79
2023-05-12T11:18:23.575Z,97.77
2023-05-12T11:19:26.525Z,98.58
2023-05-12T11:20:30.856Z,98.61
2023-05-12T11:21:34.015Z,99.18
2023-05-12T11:22:37.505Z,99.17
2023-05-12T11:23:40.217Z,99.08
2023-05-12T11:24:42.930Z,99.78
2023-05-12T11:25:45.782Z,100.00
2023-05-12T11:26:54.548Z,100.00
2023-05-12T11:27:59.816Z,100.00
2023-05-12T11:29:04.123Z,100.00
2023-05-12T11:30:07.672Z,100.00
2023-05-12T11:31:20.247Z,100.00
2023-05-12T11:32:22.990Z,98.44
2023-05-12T11:33:25.788Z,98.65
2023-05-12T11:34:28.569Z,99.48
2023-05-12T11:35:32.666Z,99.10
2023-05-12T11:36:39.467Z,99.43
2023-05-12T11:37:43.865Z,99.84
2023-05-12T11:38:51.538Z,99.68
2023-05-12T11:39:54.208Z,100.00
2023-05-12T11:40:56.932Z,99.50
2023-05-12T11:42:13.277Z,98.75
2023-05-12T11:43:21.024Z,98.19
2023-05-12T11:44:25.083Z,98.90
2023-05-12T11:45:29.483Z,99.29
2023-05-12T11:46:32.266Z,99.94
2023-05-12T11:47:35.077Z,100.00
2023-05-12T11:48:37.747Z,100.00
2023-05-12T11:49:57.673Z,100.00
2023-05-12T11:51:01.215Z,100.00
2023-05-12T11:52:05.098Z,100.00
2023-05-12T11:53:15.085Z,100.00
2023-05-12T11:54:17.995Z,100.00
2023-05-12T11:55:23.602Z,100.00
2023-05-12T11:56:26.893Z,100.00
2023-05-12T11:57:32.659Z,100.00
2023-05-12T11:58:35.736Z,100.00
2023-05-12T11:59:40.880Z,100.00
2023-05-12T12:00:43.905Z,100.00
2023-05-12T12:01:46.990Z,99.69
2023-05-12T12:02:49.792Z,99.52
2023-05-12T12:03:54.792Z,99.62
2023-05-12T12:04:57.922Z,99.85
2023-05-12T12:06:02.722Z,100.00
2023-05-12T12:07:06.285Z,100.00
2023-05-12T12:08:15.920Z,100.00
2023-05-12T12:09:18.682Z,99.80
2023-05-12T12:10:22.014Z,100.00
2023-05-12T12:11:28.461Z,100.00
2023-05-12T12:12:31.152Z,99.87
2023-05-12T12:13:33.846Z,100.00
2023-05-12T12:14:38.285Z,100.00
2023-05-12T12:15:41.031Z,100.00
2023-05-12T12:16:43.706Z,100.00
2023-05-12T12:17:46.460Z,100.00
2023-05-12T12:18:49.239Z,100.00
2023-05-12T12:19:52.062Z,100.00
2023-05-12T12:20:54.743Z,100.00
2023-05-12T12:21:58.174Z,100.00
2023-05-12T12:23:00.927Z,99.24
2023-05-12T12:24:03.700Z,98.70
2023-05-12T12:25:07.025Z,98.85
2023-05-12T12:26:09.828Z,99.22
2023-05-12T12:27:12.576Z,99.17
2023-05-12T12:28:15.210Z,98.54
2023-05-12T12:29:18.537Z,99.04
2023-05-12T12:30:21.527Z,98.77
2023-05-12T12:31:24.257Z,98.23
2023-05-12T12:32:27.424Z,98.24
2023-05-12T12:33:30.232Z,98.53
2023-05-12T12:34:33.618Z,98.41
2023-05-12T12:35:36.225Z,98.54
2023-05-12T12:36:38.876Z,98.96
2023-05-12T12:37:41.837Z,98.63
2023-05-12T12:38:47.864Z,97.88
2023-05-12T12:39:50.710Z,98.11
2023-05-12T12:40:53.478Z,98.95
2023-05-12T12:42:19.133Z,99.34
2023-05-12T12:43:22.382Z,98.60
2023-05-12T12:44:25.087Z,98.81
2023-05-12T12:45:27.928Z,98.94
2023-05-12T12:46:30.781Z,99.36
2023-05-12T12:47:33.633Z,99.43
2023-05-12T12:48:36.442Z,99.59
2023-05-12T12:49:39.177Z,99.78
2023-05-12T12:50:42.108Z,100.00
2023-05-12T12:51:46.795Z,99.99
2023-05-12T12:52:50.074Z,100.00
2023-05-12T12:53:52.949Z,100.00
2023-05-12T12:54:55.771Z,100.00
2023-05-12T12:55:58.433Z,100.00
2023-05-12T12:57:01.261Z,100.00
2023-05-12T12:58:04.002Z,100.00
2023-05-12T12:59:06.934Z,100.00
2023-05-12T13:00:10.298Z,99.82
2023-05-12T13:01:13.063Z,99.47
2023-05-12T13:02:15.896Z,99.67
2023-05-12T13:03:20.352Z,100.00
2023-05-12T13:04:23.557Z,100.00
2023-05-12T13:05:26.232Z,100.00
2023-05-12T13:06:29.466Z,100.00
2023-05-12T13:07:32.216Z,99.72
2023-05-12T13:08:35.244Z,98.63
2023-05-12T13:09:38.054Z,98.84
2023-05-12T13:10:42.187Z,98.15
2023-05-12T13:11:45.311Z,98.39
2023-05-12T13:12:48.117Z,98.89
2023-05-12T13:13:50.862Z,99.49
2023-05-12T13:14:53.842Z,99.66
2023-05-12T13:15:56.493Z,99.95
2023-05-12T13:16:59.345Z,99.91
2023-05-12T13:18:02.161Z,100.00
2023-05-12T13:19:05.125Z,100.00
2023-05-12T13:20:09.254Z,100.00
2023-05-12T13:21:12.294Z,100.00
2023-05-12T13:22:15.011Z,99.63
2023-05-12T13:23:17.848Z,99.86
2023-05-12T13:24:20.524Z,100.00
2023-05-12T13:25:23.537Z,100.00
2023-05-12T13:26:26.898Z,99.93
2023-05-12T13:27:29.581Z,99.89
2023-05-12T13:28:32.291Z,98.83
2023-05-12T13:29:35.710Z,99.10
2023-05-12T13:30:38.586Z,99.57
2023-05-12T13:31:43.159Z,99.87
2023-05-12T13:32:46.991Z,100.00
2023-05-12T13:33:49.625Z,100.00
2023-05-12T13:34:52.490Z,100.00
2023-05-12T13:35:55.426Z,100.00
2023-05-12T13:36:58.686Z,100.00
2023-05-12T13:38:01.450Z,100.00
2023-05-12T13:39:04.339Z,100.00
2023-05-12T13:40:07.870Z,100.00
2023-05-12T13:41:11.382Z,100.00